Time;durP1;ratioP1;P1;durP2;ratioP2;P2;SDS_P1;SDS_P2;PMS_P1;PMS_P2;Temp;Humidity;BMP_temperature;BMP_pressure;BME280_temperature;BME280_humidity;BME280_pressure;Samples;Min_cycle;Max_cycle;Signal;HPM_P1;HPM_P2
2021/06/08 00:00:38;;;;;;;5.12;4.35;;;;;;;14.78;57.64;96806.03;1725179;81;21002;-79
2021/06/08 00:03:07;;;;;;;4.40;3.50;;;;;;;14.77;57.67;96805.23;1765009;81;20957;-79
2021/06/08 00:05:32;;;;;;;3.98;3.10;;;;;;;14.75;57.57;96804.62;1753266;80;20885;-79
2021/06/08 00:08:00;;;;;;;4.12;3.58;;;;;;;14.74;57.74;96807.44;1751328;80;20947;-78
2021/06/08 00:10:26;;;;;;;5.37;3.37;;;;;;;14.73;57.88;96800.59;1775250;80;20945;-79
2021/06/08 00:12:52;;;;;;;3.62;3.27;;;;;;;14.72;57.85;96808.95;1781520;80;20925;-79
2021/06/08 00:15:17;;;;;;;3.83;3.45;;;;;;;14.70;57.79;96805.73;1779263;80;20921;-79
2021/06/08 00:17:43;;;;;;;4.05;3.33;;;;;;;14.69;57.91;96804.11;1777592;80;21243;-79
2021/06/08 00:20:10;;;;;;;3.60;3.22;;;;;;;14.69;57.97;96808.04;1775056;80;20969;-79
2021/06/08 00:22:36;;;;;;;3.40;3.02;;;;;;;14.67;57.72;96807.44;1780430;80;21231;-79
2021/06/08 00:25:03;;;;;;;5.55;3.40;;;;;;;14.64;57.75;96807.33;1781142;80;20952;-79
2021/06/08 00:27:29;;;;;;;3.42;3.10;;;;;;;14.63;57.91;96812.73;1779250;80;20980;-79
2021/06/08 00:29:54;;;;;;;4.60;3.47;;;;;;;14.62;57.61;96809.81;1781132;80;20903;-79
2021/06/08 00:32:20;;;;;;;3.20;2.90;;;;;;;14.59;57.61;96808.90;1781139;80;20941;-79
2021/06/08 00:34:46;;;;;;;4.55;3.00;;;;;;;14.57;57.52;96805.68;1781514;80;21012;-79
2021/06/08 00:37:12;;;;;;;5.95;2.95;;;;;;;14.55;57.51;96803.77;1778144;80;20952;-79
2021/06/08 00:39:38;;;;;;;5.08;3.02;;;;;;;14.52;57.78;96802.35;1777217;81;21012;-79
2021/06/08 00:42:04;;;;;;;3.02;2.80;;;;;;;14.50;57.40;96802.25;1775018;81;20965;-79
2021/06/08 00:44:29;;;;;;;5.20;3.50;;;;;;;14.47;57.09;96807.34;1749705;81;20861;-79
2021/06/08 00:46:56;;;;;;;3.27;2.85;;;;;;;14.46;56.95;96794.47;1766307;81;20997;-79
2021/06/08 00:49:22;;;;;;;3.55;3.10;;;;;;;14.43;57.08;96800.86;1764982;81;20972;-79
2021/06/08 00:51:48;;;;;;;2.90;2.55;;;;;;;14.40;57.37;96794.23;1775303;80;21307;-79
2021/06/08 00:54:14;;;;;;;4.65;2.87;;;;;;;14.38;57.18;96794.92;1760069;80;20948;-79
2021/06/08 00:56:42;;;;;;;3.00;2.55;;;;;;;14.35;57.15;96803.16;1751847;81;20899;-79
2021/06/08 00:59:08;;;;;;;2.95;2.47;;;;;;;14.32;57.39;96797.02;1774872;80;20897;-79
2021/06/08 01:01:33;;;;;;;4.85;2.87;;;;;;;14.30;57.46;96795.58;1764533;80;20959;-79
2021/06/08 01:04:09;;;;;;;5.08;2.62;;;;;;;14.28;57.27;96797.58;1765988;81;20932;-79
2021/06/08 01:06:36;;;;;;;2.80;2.60;;;;;;;14.26;56.91;96789.94;1749780;80;20953;-79
2021/06/08 01:09:05;;;;;;;3.58;3.02;;;;;;;14.25;57.11;96788.83;1771536;80;20905;-79
2021/06/08 01:11:31;;;;;;;3.83;2.92;;;;;;;14.24;57.42;96792.45;1767782;80;20897;-79
2021/06/08 01:13:57;;;;;;;4.10;2.58;;;;;;;14.22;57.26;96793.95;1771944;81;20965;-79
2021/06/08 01:16:24;;;;;;;3.62;2.52;;;;;;;14.21;57.42;96791.53;1770653;81;21029;-79
2021/06/08 01:18:50;;;;;;;4.10;3.10;;;;;;;14.20;57.45;96793.34;1776703;80;21012;-79
2021/06/08 01:21:16;;;;;;;5.92;3.77;;;;;;;14.17;57.51;96795.05;1778389;80;21016;-79
2021/06/08 01:23:43;;;;;;;5.05;3.35;;;;;;;14.17;57.67;96796.34;1775722;81;21283;-79
2021/06/08 01:26:09;;;;;;;3.85;2.80;;;;;;;14.15;57.54;96794.41;1773172;80;20920;-79
2021/06/08 01:28:36;;;;;;;3.45;2.90;;;;;;;14.12;57.45;96789.06;1775646;80;21306;-79
2021/06/08 01:31:09;;;;;;;4.47;3.05;;;;;;;14.11;57.51;96788.77;1767458;80;20921;-79
2021/06/08 01:33:41;;;;;;;3.83;2.90;;;;;;;14.09;57.53;96788.16;1777313;81;21262;-79
2021/06/08 01:36:11;;;;;;;3.62;3.15;;;;;;;14.07;57.26;96790.66;1770104;81;20977;-79
2021/06/08 01:38:40;;;;;;;5.53;3.10;;;;;;;14.05;57.64;96788.74;1774684;80;21084;-79
2021/06/08 01:41:07;;;;;;;3.85;2.83;;;;;;;14.01;57.83;96784.41;1770242;80;21004;-79
2021/06/08 01:43:33;;;;;;;4.33;2.70;;;;;;;14.01;57.46;96787.52;1778135;80;20909;-79
2021/06/08 01:45:58;;;;;;;2.87;2.50;;;;;;;13.99;57.75;96782.97;1763240;80;21432;-79
2021/06/08 01:48:24;;;;;;;3.27;2.47;;;;;;;13.97;57.88;96782.35;1779743;80;20962;-79
2021/06/08 01:50:50;;;;;;;5.05;2.90;;;;;;;13.96;58.20;96789.39;1750575;81;21019;-79
2021/06/08 01:53:38;;;;;;;3.00;2.70;;;;;;;13.92;58.26;96785.55;1761115;80;20968;-79
2021/06/08 01:56:12;;;;;;;3.17;2.70;;;;;;;13.93;58.60;96791.58;1763711;81;20932;-79
2021/06/08 01:58:45;;;;;;;3.55;2.80;;;;;;;13.94;58.76;96786.66;1777997;80;21320;-79
2021/06/08 02:01:22;;;;;;;3.62;2.87;;;;;;;13.93;58.94;96782.44;1773354;80;20972;-79
2021/06/08 02:03:56;;;;;;;3.30;3.00;;;;;;;13.91;59.29;96780.52;1771861;80;20996;-79
2021/06/08 02:06:35;;;;;;;4.35;3.22;;;;;;;13.90;59.38;96781.52;1757054;80;20956;-79
2021/06/08 02:09:41;;;;;;;4.90;3.25;;;;;;;13.90;59.66;96785.44;1777148;80;20996;-79
2021/06/08 02:12:16;;;;;;;4.58;3.40;;;;;;;13.89;59.50;96790.36;1777306;80;20889;-79
2021/06/08 02:14:51;;;;;;;4.72;3.72;;;;;;;13.86;59.73;96787.64;1759691;81;20898;-79
2021/06/08 02:17:25;;;;;;;5.08;4.28;;;;;;;13.85;60.07;96789.14;1775852;81;21178;-79
2021/06/08 02:19:52;;;;;;;5.78;4.25;;;;;;;13.84;60.07;96788.34;1757614;80;21222;-79
2021/06/08 02:22:24;;;;;;;5.53;3.80;;;;;;;13.88;60.04;96798.70;1780671;80;20984;-79
2021/06/08 02:24:50;;;;;;;5.17;3.50;;;;;;;13.91;59.97;96793.58;1747754;80;20956;-79
2021/06/08 02:27:16;;;;;;;4.45;3.90;;;;;;;13.94;59.75;96795.80;1781467;80;21246;-79
2021/06/08 02:29:46;;;;;;;3.98;3.50;;;;;;;13.95;59.40;96794.80;1779032;80;21326;-79
2021/06/08 02:32:13;;;;;;;4.85;3.70;;;;;;;13.96;59.49;96796.42;1780919;80;21275;-79
2021/06/08 02:34:38;;;;;;;3.83;3.20;;;;;;;13.94;59.66;96797.11;1777513;80;20948;-79
2021/06/08 02:37:04;;;;;;;4.75;3.67;;;;;;;13.92;59.76;96798.61;1778842;80;21028;-79
2021/06/08 02:39:30;;;;;;;4.60;3.83;;;;;;;13.89;60.18;96800.31;1763107;81;20970;-79
2021/06/08 02:41:56;;;;;;;4.83;3.70;;;;;;;13.88;60.26;96803.92;1781991;80;20946;-78
2021/06/08 02:44:22;;;;;;;5.65;3.90;;;;;;;13.87;60.45;96809.34;1779156;80;21235;-79
2021/06/08 02:46:49;;;;;;;4.55;4.05;;;;;;;13.85;60.59;96806.92;1762384;81;20980;-79
2021/06/08 02:49:18;;;;;;;4.80;4.28;;;;;;;13.82;60.92;96804.67;1772670;80;20937;-79
2021/06/08 02:51:43;;;;;;;4.35;3.95;;;;;;;13.79;61.02;96801.95;1779110;80;20917;-79
2021/06/08 02:54:09;;;;;;;5.40;3.85;;;;;;;13.78;61.27;96806.86;1761420;80;21301;-79
2021/06/08 02:56:35;;;;;;;4.62;3.87;;;;;;;13.78;61.58;96810.78;1780822;80;20918;-79
2021/06/08 02:59:00;;;;;;;4.85;4.25;;;;;;;13.77;61.86;96811.78;1771224;80;20916;-79
2021/06/08 03:01:26;;;;;;;5.05;3.83;;;;;;;13.78;61.61;96814.70;1754951;80;21005;-79
2021/06/08 03:03:53;;;;;;;4.25;3.67;;;;;;;13.82;61.37;96816.42;1775013;80;20889;-79
2021/06/08 03:06:35;;;;;;;4.30;3.90;;;;;;;13.86;61.55;96816.88;1779141;80;20980;-79
2021/06/08 03:09:05;;;;;;;4.17;3.77;;;;;;;13.88;61.63;96820.09;1760158;80;20988;-79
2021/06/08 03:11:42;;;;;;;4.95;4.03;;;;;;;13.88;61.71;96811.76;1781578;80;21009;-79
2021/06/08 03:14:13;;;;;;;4.75;4.22;;;;;;;13.90;61.87;96814.17;1758055;80;20968;-79
2021/06/08 03:16:47;;;;;;;4.75;3.92;;;;;;;13.90;61.96;96816.29;1760712;81;21190;-79
2021/06/08 03:19:14;;;;;;;6.25;4.50;;;;;;;13.89;62.11;96817.79;1775753;81;21317;-79
2021/06/08 03:21:42;;;;;;;4.37;3.87;;;;;;;13.88;62.40;96820.09;1781108;80;21084;-79
2021/06/08 03:24:11;;;;;;;4.45;3.67;;;;;;;13.86;62.52;96822.91;1754379;81;20990;-79
2021/06/08 03:26:37;;;;;;;5.25;4.33;;;;;;;13.86;62.67;96822.91;1771399;80;21322;-79
2021/06/08 03:29:09;;;;;;;4.70;3.80;;;;;;;13.87;62.69;96818.48;1727411;82;20916;-79
2021/06/08 03:31:36;;;;;;;6.17;4.22;;;;;;;13.90;62.89;96824.13;1779450;80;20964;-79
2021/06/08 03:34:02;;;;;;;5.85;4.90;;;;;;;13.93;62.98;96823.73;1781041;80;20933;-79
2021/06/08 03:36:28;;;;;;;4.62;4.00;;;;;;;13.98;63.20;96830.98;1781139;80;20984;-79
2021/06/08 03:38:54;;;;;;;5.97;4.15;;;;;;;14.00;63.72;96823.80;1781105;80;21248;-79
2021/06/08 03:41:20;;;;;;;4.90;4.37;;;;;;;14.01;63.98;96822.80;1781591;80;20997;-79
2021/06/08 03:43:46;;;;;;;4.67;4.28;;;;;;;14.04;64.02;96827.63;1752932;80;21006;-79
2021/06/08 03:46:12;;;;;;;6.65;4.97;;;;;;;14.03;64.07;96828.63;1761164;81;21188;-79
2021/06/08 03:48:37;;;;;;;5.20;4.37;;;;;;;14.03;64.38;96825.52;1776942;80;20977;-79
2021/06/08 03:51:03;;;;;;;6.25;4.80;;;;;;;14.03;64.61;96820.80;1781529;80;20964;-79
2021/06/08 03:53:29;;;;;;;4.62;4.22;;;;;;;14.03;65.04;96823.41;1758070;80;20964;-79
2021/06/08 03:55:55;;;;;;;5.40;4.75;;;;;;;14.05;65.28;96826.62;1762632;80;20976;-79
2021/06/08 03:58:21;;;;;;;5.28;4.78;;;;;;;14.08;65.44;96822.31;1780711;80;21238;-79
2021/06/08 04:00:50;;;;;;;5.83;5.30;;;;;;;14.11;65.32;96824.04;1776189;80;20949;-79
2021/06/08 04:03:17;;;;;;;5.10;4.60;;;;;;;14.15;65.20;96824.95;1769244;80;20925;-79
2021/06/08 04:05:43;;;;;;;5.17;4.60;;;;;;;14.16;65.62;96825.30;1732904;82;20937;-79
2021/06/08 04:08:10;;;;;;;5.12;4.62;;;;;;;14.16;65.91;96831.83;1749796;80;21286;-79
2021/06/08 04:10:36;;;;;;;5.50;5.00;;;;;;;14.16;65.96;96832.63;1780127;80;20936;-79
2021/06/08 04:13:04;;;;;;;5.72;4.95;;;;;;;14.17;66.18;96834.24;1735986;82;20955;-79
2021/06/08 04:15:31;;;;;;;5.45;4.80;;;;;;;14.18;66.33;96829.82;1771943;80;21020;-79
2021/06/08 04:17:57;;;;;;;5.22;4.72;;;;;;;14.20;66.55;96833.85;1762032;80;20956;-79
2021/06/08 04:20:27;;;;;;;5.30;4.80;;;;;;;14.24;66.49;96829.04;1781419;80;20963;-79
2021/06/08 04:22:56;;;;;;;4.90;4.50;;;;;;;14.28;66.43;96827.14;1756361;80;20910;-79
2021/06/08 04:25:22;;;;;;;5.42;4.87;;;;;;;14.32;66.52;96830.20;1751733;81;20940;-79
2021/06/08 04:27:48;;;;;;;6.30;5.00;;;;;;;14.33;66.80;96828.70;1774553;80;20902;-79
2021/06/08 04:30:15;;;;;;;7.15;5.70;;;;;;;14.33;67.06;96831.31;1780570;80;20929;-79
2021/06/08 04:32:41;;;;;;;6.37;5.15;;;;;;;14.35;67.18;96833.22;1780716;80;20916;-79
2021/06/08 04:35:08;;;;;;;5.85;5.35;;;;;;;14.37;67.37;96831.22;1767775;80;20937;-79
2021/06/08 04:37:37;;;;;;;5.95;5.45;;;;;;;14.41;67.49;96835.05;1754042;81;21004;-79
2021/06/08 04:40:05;;;;;;;6.72;5.37;;;;;;;14.46;67.67;96838.41;1771464;81;21325;-79
2021/06/08 04:42:31;;;;;;;7.28;5.47;;;;;;;14.54;67.77;96838.77;1751935;81;20988;-79
2021/06/08 04:44:56;;;;;;;6.35;5.53;;;;;;;14.59;67.68;96837.66;1775958;80;20968;-79
2021/06/08 04:47:23;;;;;;;7.17;6.22;;;;;;;14.65;67.80;96833.78;1750557;80;20958;-79
2021/06/08 04:49:49;;;;;;;5.95;5.45;;;;;;;14.70;67.90;96841.03;1770192;81;21039;-79
2021/06/08 04:52:15;;;;;;;5.90;4.97;;;;;;;14.73;67.92;96843.25;1754877;81;21029;-79
2021/06/08 04:54:42;;;;;;;6.60;6.00;;;;;;;14.76;68.05;96838.13;1776530;80;20980;-79
2021/06/08 04:57:11;;;;;;;6.30;5.70;;;;;;;14.79;68.19;96842.45;1753113;81;20949;-79
2021/06/08 04:59:57;;;;;;;6.72;5.45;;;;;;;14.83;68.18;96847.63;1756525;80;20945;-79
2021/06/08 05:02:40;;;;;;;6.22;5.72;;;;;;;14.89;68.09;96845.52;1767614;80;21028;-79
2021/06/08 05:05:10;;;;;;;6.70;5.60;;;;;;;14.96;68.14;96848.94;1751223;81;21358;-79
2021/06/08 05:07:39;;;;;;;6.33;5.72;;;;;;;15.03;68.37;96850.28;1726523;82;21250;-79
2021/06/08 05:10:06;;;;;;;7.37;5.15;;;;;;;15.07;68.50;96849.38;1767806;80;21262;-79
2021/06/08 05:12:31;;;;;;;5.75;5.12;;;;;;;15.12;68.59;96848.27;1762370;80;20917;-79
2021/06/08 05:15:00;;;;;;;5.70;5.20;;;;;;;15.15;68.47;96853.14;1760252;80;21023;-79
2021/06/08 05:17:26;;;;;;;6.40;4.95;;;;;;;15.20;68.45;96853.34;1747282;81;20918;-79
2021/06/08 05:19:52;;;;;;;5.80;5.25;;;;;;;15.28;68.51;96848.70;1770249;81;20992;-79
2021/06/08 05:22:21;;;;;;;5.92;4.97;;;;;;;15.35;68.62;96847.42;1754918;80;21007;-79
2021/06/08 05:24:52;;;;;;;7.78;6.20;;;;;;;15.42;68.88;96853.45;1756893;81;20987;-79
2021/06/08 05:27:19;;;;;;;6.75;5.78;;;;;;;15.47;68.78;96848.44;1759326;80;20929;-79
2021/06/08 05:29:46;;;;;;;6.80;5.35;;;;;;;15.52;68.62;96846.52;1771360;80;20962;-79
2021/06/08 05:32:13;;;;;;;6.50;5.30;;;;;;;15.56;68.93;96849.84;1774932;80;20928;-79
2021/06/08 05:34:42;;;;;;;5.35;4.85;;;;;;;15.64;68.53;96850.19;1777530;80;21240;-79
2021/06/08 05:37:13;;;;;;;5.85;5.37;;;;;;;15.71;68.22;96852.29;1767574;81;21008;-79
2021/06/08 05:39:40;;;;;;;6.12;5.53;;;;;;;15.80;68.27;96851.09;1750107;81;20956;-80
2021/06/08 05:42:07;;;;;;;7.65;5.62;;;;;;;15.86;67.97;96850.27;1770445;80;20964;-79
2021/06/08 05:44:34;;;;;;;6.33;5.60;;;;;;;15.93;67.39;96848.13;1765095;80;21298;-79
2021/06/08 05:47:02;;;;;;;6.12;5.53;;;;;;;15.99;67.07;96849.95;1767653;81;20956;-80
2021/06/08 05:49:28;;;;;;;6.33;5.62;;;;;;;16.04;67.15;96850.14;1773053;81;20987;-79
2021/06/08 05:51:54;;;;;;;6.30;5.70;;;;;;;16.10;66.92;96845.37;1777333;81;20897;-79
2021/06/08 05:54:20;;;;;;;7.40;6.28;;;;;;;16.16;67.14;96842.77;1771676;80;20921;-79
2021/06/08 05:56:46;;;;;;;6.58;5.92;;;;;;;16.26;68.03;96842.82;1776020;80;20917;-79
2021/06/08 05:59:14;;;;;;;7.50;6.30;;;;;;;16.34;68.20;96851.28;1777419;80;20964;-79
2021/06/08 06:01:39;;;;;;;7.62;6.55;;;;;;;16.41;68.64;96846.01;1697017;82;21020;-79
2021/06/08 06:04:05;;;;;;;7.00;5.80;;;;;;;16.46;68.49;96845.70;1753556;80;21251;-77
2021/06/08 06:06:30;;;;;;;7.50;6.42;;;;;;;16.53;68.49;96840.93;1775291;81;20905;-77
2021/06/08 06:08:56;;;;;;;7.03;6.00;;;;;;;16.60;68.35;96846.98;1767533;80;20951;-76
2021/06/08 06:11:22;;;;;;;6.53;5.87;;;;;;;16.68;67.97;96855.94;1764594;81;20913;-76
2021/06/08 06:14:02;;;;;;;7.62;6.83;;;;;;;16.77;68.04;96854.19;1749941;81;21246;-77
2021/06/08 06:16:35;;;;;;;8.83;6.40;;;;;;;16.91;66.69;96854.91;1761743;81;20929;-76
2021/06/08 06:19:04;;;;;;;7.00;6.30;;;;;;;17.05;67.06;96858.27;1776260;81;21018;-76
2021/06/08 06:21:30;;;;;;;7.83;7.03;;;;;;;17.17;67.04;96858.42;1757133;80;21004;-77
2021/06/08 06:23:56;;;;;;;6.80;6.20;;;;;;;17.24;67.24;96856.03;1763491;81;20945;-77
2021/06/08 06:26:25;;;;;;;7.75;6.80;;;;;;;17.30;66.94;96860.97;1768477;81;20909;-76
2021/06/08 06:28:52;;;;;;;7.92;7.12;;;;;;;17.35;67.49;96860.61;1761187;80;20917;-77
2021/06/08 06:31:18;;;;;;;8.55;5.92;;;;;;;17.43;67.25;96857.45;1751742;81;20921;-77
2021/06/08 06:33:50;;;;;;;8.25;6.78;;;;;;;17.56;64.91;96861.27;1728714;82;20881;-76
2021/06/08 06:36:12;;;;;;;6.75;6.05;;;;;;;17.72;64.50;96857.34;1758659;80;21353;-77
2021/06/08 06:38:37;;;;;;;7.05;6.35;;;;;;;17.88;64.19;96852.84;1751034;81;20972;-77
2021/06/08 06:41:06;;;;;;;7.25;6.55;;;;;;;18.00;62.92;96857.19;1769105;81;20985;-77
2021/06/08 06:43:33;;;;;;;8.83;6.42;;;;;;;18.15;63.94;96853.41;1754276;80;21294;-77
2021/06/08 06:45:59;;;;;;;6.87;6.17;;;;;;;18.27;62.74;96866.14;1776872;80;20972;-76
2021/06/08 06:48:25;;;;;;;6.97;6.28;;;;;;;18.38;60.93;96856.19;1773288;80;20873;-77
2021/06/08 06:50:52;;;;;;;7.92;7.12;;;;;;;18.48;62.16;96860.45;1763363;80;21341;-77
2021/06/08 06:53:18;;;;;;;7.47;6.60;;;;;;;18.59;61.37;96859.72;1764398;80;20968;-77
2021/06/08 06:55:48;;;;;;;7.62;6.80;;;;;;;18.69;60.44;96855.78;1769542;80;20933;-76
2021/06/08 06:58:18;;;;;;;8.15;7.08;;;;;;;18.81;61.04;96862.72;1776291;80;21242;-77
2021/06/08 07:00:45;;;;;;;9.18;7.33;;;;;;;18.93;60.77;96859.34;1757570;80;20977;-77
2021/06/08 07:03:11;;;;;;;9.05;7.62;;;;;;;19.05;59.91;96858.88;1700477;84;21342;-77
2021/06/08 07:05:37;;;;;;;9.55;7.47;;;;;;;19.14;59.54;96859.64;1761531;81;20964;-77
2021/06/08 07:08:05;;;;;;;8.25;7.45;;;;;;;19.25;59.89;96863.36;1775242;81;20905;-77
2021/06/08 07:10:30;;;;;;;10.23;8.40;;;;;;;19.35;59.44;96864.11;1752096;81;20985;-76
2021/06/08 07:12:57;;;;;;;9.13;7.28;;;;;;;19.39;58.95;96863.97;1759680;81;20909;-77
2021/06/08 07:15:26;;;;;;;8.15;7.35;;;;;;;19.46;59.06;96864.14;1758500;81;20921;-77
2021/06/08 07:17:52;;;;;;;8.25;7.45;;;;;;;19.55;60.23;96866.50;1753643;80;20916;-77
2021/06/08 07:20:18;;;;;;;8.63;7.15;;;;;;;19.63;59.35;96866.96;1777964;80;21329;-77
2021/06/08 07:22:44;;;;;;;8.20;7.40;;;;;;;19.72;59.55;96863.48;1751286;81;21040;-77
2021/06/08 07:25:11;;;;;;;9.85;7.28;;;;;;;19.78;59.22;96867.33;1773677;80;20956;-77
2021/06/08 07:27:36;;;;;;;8.88;8.03;;;;;;;19.88;59.18;96864.66;1775444;81;21275;-77
2021/06/08 07:30:05;;;;;;;9.10;7.75;;;;;;;19.99;58.65;96859.88;1768633;80;20973;-76
2021/06/08 07:32:57;;;;;;;8.48;7.55;;;;;;;20.05;58.11;96865.58;1699799;83;20952;-77
2021/06/08 07:35:40;;;;;;;8.93;7.97;;;;;;;20.15;57.12;96861.02;1681747;84;20963;-77
2021/06/08 07:38:11;;;;;;;9.35;7.87;;;;;;;20.26;56.31;96868.14;1762493;80;21292;-77
2021/06/08 07:40:41;;;;;;;8.65;7.85;;;;;;;20.36;55.80;96871.01;1775083;80;20988;-77
2021/06/08 07:43:09;;;;;;;8.93;7.37;;;;;;;20.46;55.79;96870.43;1761148;80;21110;-77
2021/06/08 07:45:42;;;;;;;8.48;7.55;;;;;;;20.55;54.89;96861.13;1783476;80;20940;-77
2021/06/08 07:48:11;;;;;;;9.83;7.37;;;;;;;20.62;54.71;96863.11;1778766;80;20928;-78
2021/06/08 07:50:38;;;;;;;8.23;6.42;;;;;;;20.73;54.04;96863.61;1775333;80;21031;-77
2021/06/08 07:53:04;;;;;;;8.38;7.58;;;;;;;20.85;53.36;96863.58;1770440;80;21281;-77
2021/06/08 07:55:30;;;;;;;8.80;8.00;;;;;;;20.96;53.83;96866.68;1780131;80;20885;-77
2021/06/08 07:57:56;;;;;;;8.85;7.62;;;;;;;21.03;53.65;96860.75;1770271;80;20909;-77
2021/06/08 08:00:23;;;;;;;8.03;7.25;;;;;;;21.10;54.09;96863.24;1773461;80;21269;-77
2021/06/08 08:02:52;;;;;;;9.00;7.65;;;;;;;21.11;54.21;96866.16;1780063;80;20984;-77
2021/06/08 08:05:19;;;;;;;8.13;7.33;;;;;;;21.13;53.77;96864.89;1773529;80;21021;-77
2021/06/08 08:07:46;;;;;;;8.10;7.30;;;;;;;21.28;53.48;96868.36;1753166;80;21262;-77
2021/06/08 08:10:12;;;;;;;8.90;8.00;;;;;;;21.41;53.01;96864.09;1767502;80;20965;-77
2021/06/08 08:12:39;;;;;;;9.05;7.95;;;;;;;21.57;52.54;96860.67;1783997;80;20999;-77
2021/06/08 08:15:06;;;;;;;9.00;6.97;;;;;;;21.71;51.76;96859.84;1782044;80;21290;-77
2021/06/08 08:17:32;;;;;;;8.40;7.35;;;;;;;21.85;52.32;96859.80;1780973;80;20921;-77
2021/06/08 08:19:58;;;;;;;8.73;6.45;;;;;;;22.03;51.15;96861.91;1781330;80;20941;-77
2021/06/08 08:22:24;;;;;;;6.50;5.53;;;;;;;22.22;50.54;96859.83;1750424;80;20977;-77
2021/06/08 08:24:51;;;;;;;6.80;5.10;;;;;;;22.41;49.89;96859.81;1763472;80;21071;-78
2021/06/08 08:27:17;;;;;;;8.78;6.55;;;;;;;22.62;48.58;96856.40;1773370;80;21275;-77
2021/06/08 08:29:45;;;;;;;5.50;4.90;;;;;;;22.73;51.15;96858.63;1768024;80;20902;-77
2021/06/08 08:32:10;;;;;;;7.70;5.90;;;;;;;22.77;48.14;96855.75;1774596;80;21261;-77
2021/06/08 08:34:38;;;;;;;6.62;5.60;;;;;;;22.87;49.38;96862.53;1781045;80;20962;-78
2021/06/08 08:37:04;;;;;;;5.83;5.03;;;;;;;22.99;47.53;96860.55;1776759;80;21306;-78
2021/06/08 08:39:30;;;;;;;6.42;5.70;;;;;;;23.09;47.90;96856.39;1748551;81;20981;-77
2021/06/08 08:41:55;;;;;;;9.40;6.47;;;;;;;23.20;47.49;96858.91;1781765;80;20948;-78
2021/06/08 08:44:21;;;;;;;8.53;6.62;;;;;;;23.33;46.51;96861.16;1768495;80;20873;-77
2021/06/08 08:46:47;;;;;;;6.53;5.83;;;;;;;23.45;45.61;96860.22;1752995;81;20925;-77
2021/06/08 08:49:12;;;;;;;5.58;4.80;;;;;;;23.58;46.55;96863.78;1762005;81;20948;-77
2021/06/08 08:51:38;;;;;;;6.67;5.50;;;;;;;23.69;47.53;96860.70;1759643;80;20967;-77
2021/06/08 08:54:04;;;;;;;6.67;5.42;;;;;;;23.86;47.63;96867.47;1780754;80;21012;-77
2021/06/08 08:56:36;;;;;;;6.35;5.80;;;;;;;23.99;45.96;96862.78;1781712;80;21026;-78
2021/06/08 08:59:09;;;;;;;5.17;4.20;;;;;;;24.00;45.17;96861.20;1780360;80;21280;-77
2021/06/08 09:01:36;;;;;;;6.97;6.15;;;;;;;24.08;45.30;96851.95;1780325;80;21273;-77
2021/06/08 09:04:04;;;;;;;6.60;5.90;;;;;;;24.23;44.50;96861.33;1780900;80;20925;-78
2021/06/08 09:06:29;;;;;;;7.83;5.83;;;;;;;24.31;44.54;96855.58;1774734;80;20920;-77
2021/06/08 09:08:55;;;;;;;7.55;5.40;;;;;;;24.41;45.17;96856.98;1744679;81;21320;-77
2021/06/08 09:11:21;;;;;;;6.78;5.70;;;;;;;24.48;45.10;96860.19;1740315;81;21008;-77
2021/06/08 09:13:47;;;;;;;6.25;5.22;;;;;;;24.54;43.52;96857.02;1781372;80;20877;-77
2021/06/08 09:16:15;;;;;;;5.00;4.37;;;;;;;24.62;43.91;96860.52;1769646;80;21331;-78
2021/06/08 09:18:42;;;;;;;6.70;4.42;;;;;;;24.65;43.07;96861.85;1754349;80;20894;-78
2021/06/08 09:21:22;;;;;;;4.37;3.08;;;;;;;24.73;40.86;96860.02;1779947;80;20952;-78
2021/06/08 09:23:48;;;;;;;4.85;3.87;;;;;;;24.76;39.03;96855.53;1772438;80;20933;-78
2021/06/08 09:26:16;;;;;;;4.20;3.15;;;;;;;24.81;41.28;96854.21;1776908;80;20913;-77
2021/06/08 09:28:44;;;;;;;4.37;3.47;;;;;;;24.91;40.70;96850.80;1773660;80;21036;-77
2021/06/08 09:31:15;;;;;;;5.50;3.60;;;;;;;25.01;39.80;96850.84;1779863;80;20920;-78
2021/06/08 09:33:50;;;;;;;5.03;3.77;;;;;;;25.09;42.04;96851.14;1780438;80;20924;-77
2021/06/08 09:36:22;;;;;;;4.83;3.72;;;;;;;25.02;40.00;96837.81;1781361;80;21795;-78
2021/06/08 09:38:56;;;;;;;4.75;4.03;;;;;;;25.09;40.94;96849.02;1757070;81;20925;-77
2021/06/08 09:41:41;;;;;;;3.62;3.33;;;;;;;25.15;42.66;96845.30;1776870;81;20993;-77
2021/06/08 09:44:06;;;;;;;4.55;3.27;;;;;;;25.19;41.84;96845.03;1766864;80;20965;-77
2021/06/08 09:46:54;;;;;;;4.72;3.52;;;;;;;25.24;40.90;96846.39;1778579;80;20972;-77
2021/06/08 09:49:34;;;;;;;4.30;3.90;;;;;;;25.27;41.70;96851.17;1763756;81;21007;-78
2021/06/08 09:52:07;;;;;;;4.30;2.95;;;;;;;25.30;41.91;96854.63;1768869;80;20969;-77
2021/06/08 09:54:36;;;;;;;4.00;3.45;;;;;;;25.32;38.40;96847.71;1777490;81;21293;-77
2021/06/08 09:57:20;;;;;;;3.77;2.92;;;;;;;25.35;38.72;96850.64;1773266;80;21286;-77
2021/06/08 09:59:50;;;;;;;4.15;3.20;;;;;;;25.44;38.30;96849.06;1756916;81;21258;-77
2021/06/08 10:02:39;;;;;;;3.47;2.70;;;;;;;25.51;38.77;96847.99;1769043;80;20993;-77
2021/06/08 10:05:28;;;;;;;4.62;3.70;;;;;;;25.55;36.64;96847.75;1749360;81;20929;-77
2021/06/08 10:07:59;;;;;;;3.90;3.35;;;;;;;25.18;38.65;96850.61;1774597;80;20925;-77
2021/06/08 10:10:41;;;;;;;4.15;3.60;;;;;;;24.80;39.53;96853.41;1748423;80;21306;-77
2021/06/08 10:13:14;;;;;;;3.95;3.52;;;;;;;24.42;39.75;96852.46;1777260;80;21006;-77
2021/06/08 10:15:59;;;;;;;5.20;3.60;;;;;;;24.39;39.03;96847.11;1777368;81;20944;-81
2021/06/08 10:18:45;;;;;;;4.72;3.15;;;;;;;24.55;40.25;96844.80;1773365;80;20921;-81
2021/06/08 10:21:11;;;;;;;4.00;3.47;;;;;;;24.75;38.65;96844.63;1748732;80;21349;-81
2021/06/08 10:23:37;;;;;;;4.25;3.85;;;;;;;24.90;39.99;96838.04;1763089;80;20929;-81
2021/06/08 10:26:11;;;;;;;4.15;3.77;;;;;;;25.03;39.21;96838.87;1775151;81;20929;-81
2021/06/08 10:28:38;;;;;;;5.40;3.72;;;;;;;25.19;39.28;96835.72;1758396;81;20996;-82
2021/06/08 10:31:05;;;;;;;5.30;3.27;;;;;;;25.28;39.10;96833.35;1776340;81;21211;-81
2021/06/08 10:33:31;;;;;;;3.83;2.75;;;;;;;25.34;39.05;96836.27;1776133;80;20987;-81
2021/06/08 10:35:57;;;;;;;3.02;2.72;;;;;;;25.40;37.88;96837.89;1775226;80;21425;-81
2021/06/08 10:38:24;;;;;;;2.92;2.52;;;;;;;25.47;39.36;96839.75;1777765;80;21028;-81
2021/06/08 10:40:55;;;;;;;4.80;3.17;;;;;;;25.59;37.41;96832.84;1772289;80;21302;-81
2021/06/08 10:43:29;;;;;;;3.05;2.72;;;;;;;25.72;37.35;96831.02;1751886;81;20924;-81
2021/06/08 10:45:56;;;;;;;3.22;2.60;;;;;;;25.87;38.09;96831.50;1753159;80;20972;-82
2021/06/08 10:48:39;;;;;;;3.27;2.98;;;;;;;25.96;38.13;96834.70;1756560;81;21014;-81
2021/06/08 10:51:13;;;;;;;3.80;2.80;;;;;;;26.03;36.08;96837.08;1773055;80;21385;-81
2021/06/08 10:53:52;;;;;;;4.08;3.08;;;;;;;26.08;34.33;96841.08;1780177;80;21316;-81
2021/06/08 10:56:31;;;;;;;3.85;2.70;;;;;;;25.94;33.94;96834.17;1781305;80;21004;-81
2021/06/08 10:59:02;;;;;;;3.00;2.67;;;;;;;26.01;35.06;96829.36;1761367;80;20985;-81
2021/06/08 11:01:41;;;;;;;3.90;2.65;;;;;;;26.19;34.84;96827.98;1780391;80;20972;-81
2021/06/08 11:04:19;;;;;;;3.92;2.67;;;;;;;26.30;32.29;96832.23;1779648;80;20893;-81
2021/06/08 11:06:56;;;;;;;5.22;3.15;;;;;;;26.39;33.74;96829.05;1777316;80;20921;-81
2021/06/08 11:09:34;;;;;;;2.70;2.50;;;;;;;26.51;31.90;96825.52;1774962;80;20961;-81
2021/06/08 11:12:23;;;;;;;3.47;3.17;;;;;;;26.52;33.89;96820.45;1775146;80;20964;-81
2021/06/08 11:17:33;;;;;;;2.85;2.65;;;;;;;25.93;31.99;96815.81;1780488;80;21249;-81
2021/06/08 11:20:18;;;;;;;2.87;2.60;;;;;;;25.71;35.52;96817.44;1750714;80;21059;-81
2021/06/08 11:22:55;;;;;;;4.55;3.17;;;;;;;25.92;36.03;96812.35;1759455;80;20940;-81
2021/06/08 11:25:43;;;;;;;3.98;3.20;;;;;;;25.92;35.71;96813.68;1778857;80;20959;-81
2021/06/08 11:28:12;;;;;;;3.50;3.20;;;;;;;26.13;35.38;96809.64;1777941;80;20932;-81
2021/06/08 11:30:48;;;;;;;4.00;3.65;;;;;;;26.17;33.84;96809.35;1753689;81;20992;-81
2021/06/08 11:33:34;;;;;;;4.25;3.47;;;;;;;25.95;35.04;96811.01;1746208;81;21008;-81
2021/06/08 11:36:02;;;;;;;2.70;2.50;;;;;;;25.66;35.73;96804.88;1771738;80;20991;-81
2021/06/08 11:38:33;;;;;;;5.05;3.75;;;;;;;25.37;38.51;96820.58;1771274;80;21087;-81
2021/06/08 11:41:04;;;;;;;4.60;4.20;;;;;;;25.19;37.26;96813.65;1758144;81;21096;-81
2021/06/08 11:43:35;;;;;;;7.28;3.98;;;;;;;25.10;36.20;96808.86;1753564;80;21031;-81
2021/06/08 11:46:13;;;;;;;;;;;;;;;25.26;39.69;96806.23;1767636;80;21354;-81